createdAt,value
2023-03-05T00:01:07.263Z,5.10
2023-03-05T00:03:33.923Z,5.10
2023-03-05T00:06:00.549Z,5.10
2023-03-05T00:08:28.872Z,5.00
2023-03-05T00:11:07.589Z,5.00
2023-03-05T00:13:35.677Z,5.00
2023-03-05T00:16:08.101Z,5.00
2023-03-05T00:18:35.229Z,4.90
2023-03-05T00:21:03.176Z,4.90
2023-03-05T00:23:29.912Z,4.90
2023-03-05T00:25:56.495Z,4.80
2023-03-05T00:28:23.092Z,4.80
2023-03-05T00:30:49.681Z,4.80
2023-03-05T00:33:16.369Z,4.80
2023-03-05T00:35:44.754Z,4.80
2023-03-05T00:38:12.555Z,4.80
2023-03-05T00:40:41.174Z,4.80
2023-03-05T00:43:08.292Z,4.80
2023-03-05T00:45:35.195Z,4.90
2023-03-05T00:48:02.525Z,4.90
2023-03-05T00:50:29.133Z,4.90
2023-03-05T00:52:55.857Z,4.80
2023-03-05T00:55:22.445Z,4.80
2023-03-05T00:57:49.108Z,4.80
2023-03-05T01:00:16.777Z,4.80
2023-03-05T01:02:43.427Z,4.80
2023-03-05T01:05:13.148Z,4.80
2023-03-05T01:07:40.328Z,4.70
2023-03-05T01:10:08.159Z,4.70
2023-03-05T01:12:34.958Z,4.70
2023-03-05T01:15:01.697Z,4.70
2023-03-05T01:17:28.327Z,4.80
2023-03-05T01:19:55.223Z,4.70
2023-03-05T01:22:21.772Z,4.70
2023-03-05T01:24:48.355Z,4.70
2023-03-05T01:27:14.982Z,4.70
2023-03-05T01:29:41.576Z,4.70
2023-03-05T01:32:08.221Z,3.10
2023-03-05T01:34:37.386Z,4.60
2023-03-05T01:37:06.117Z,4.60
2023-03-05T01:39:32.721Z,4.50
2023-03-05T01:41:59.559Z,4.60
2023-03-05T01:44:29.019Z,4.60
2023-03-05T01:46:57.968Z,4.50
2023-03-05T01:49:30.515Z,4.50
2023-03-05T01:52:13.913Z,4.50
2023-03-05T01:54:50.572Z,4.50
2023-03-05T01:57:26.630Z,4.50
2023-03-05T02:00:00.832Z,4.80
2023-03-05T02:02:27.466Z,4.50
2023-03-05T02:05:31.010Z,4.40
2023-03-05T02:07:59.655Z,4.50
2023-03-05T02:10:33.304Z,4.40
2023-03-05T02:13:03.985Z,4.40
2023-03-05T02:15:32.234Z,4.40
2023-03-05T02:18:01.244Z,4.40
2023-03-05T02:20:30.485Z,4.50
2023-03-05T02:22:57.302Z,4.40
2023-03-05T02:25:27.422Z,4.40
2023-03-05T02:28:17.938Z,4.40
2023-03-05T02:30:44.646Z,4.30
2023-03-05T02:33:12.958Z,4.40
2023-03-05T02:35:39.536Z,4.40
2023-03-05T02:38:06.155Z,4.40
2023-03-05T02:40:32.898Z,4.40
2023-03-05T02:42:59.494Z,4.40
2023-03-05T02:45:26.141Z,4.40
2023-03-05T02:47:52.755Z,4.40
2023-03-05T02:50:19.476Z,4.30
2023-03-05T02:52:46.262Z,4.40
2023-03-05T02:55:13.164Z,4.30
2023-03-05T02:57:39.781Z,4.30
2023-03-05T03:00:07.371Z,4.40
2023-03-05T03:02:34.161Z,4.30
2023-03-05T03:05:00.750Z,4.30
2023-03-05T03:07:27.415Z,4.30
2023-03-05T03:09:54.029Z,4.30
2023-03-05T03:12:20.606Z,4.20
2023-03-05T03:14:47.180Z,4.30
2023-03-05T03:17:16.268Z,4.30
2023-03-05T03:19:44.150Z,4.30
2023-03-05T03:22:12.015Z,4.30
2023-03-05T03:24:39.408Z,4.20
2023-03-05T03:27:06.468Z,4.20
2023-03-05T03:29:33.576Z,4.20
2023-03-05T03:32:00.219Z,4.20
2023-03-05T03:34:27.300Z,4.20
2023-03-05T03:36:54.477Z,4.30
2023-03-05T03:39:21.665Z,4.30
2023-03-05T03:41:50.976Z,4.30
2023-03-05T03:44:19.194Z,4.30
2023-03-05T03:46:47.332Z,4.20
2023-03-05T03:49:20.443Z,4.20
2023-03-05T03:51:48.543Z,4.20
2023-03-05T03:54:16.666Z,4.20
2023-03-05T03:56:43.730Z,4.20
2023-03-05T03:59:10.369Z,4.20
2023-03-05T04:01:37.406Z,4.20
2023-03-05T04:04:05.216Z,4.10
2023-03-05T04:06:32.495Z,4.10
2023-03-05T04:08:59.476Z,4.10
2023-03-05T04:11:26.330Z,4.20
2023-03-05T04:13:52.886Z,4.10
2023-03-05T04:16:19.669Z,4.10
2023-03-05T04:18:46.593Z,4.10
2023-03-05T04:21:13.273Z,4.20
2023-03-05T04:23:40.097Z,4.20
2023-03-05T04:26:06.721Z,4.20
2023-03-05T04:28:33.577Z,4.20
2023-03-05T04:31:00.232Z,4.20
2023-03-05T04:33:26.983Z,4.10
2023-03-05T04:35:53.611Z,4.10
2023-03-05T04:38:20.259Z,4.10
2023-03-05T04:40:47.189Z,4.00
2023-03-05T04:43:14.016Z,4.00
2023-03-05T04:45:42.201Z,4.00
2023-03-05T04:48:10.318Z,4.00
2023-03-05T04:50:37.267Z,3.90
2023-03-05T04:53:04.490Z,3.90
2023-03-05T04:55:31.156Z,3.90
2023-03-05T04:57:57.983Z,3.90
2023-03-05T05:00:24.825Z,3.90
2023-03-05T05:02:52.079Z,3.80
2023-03-05T05:05:21.884Z,3.90
2023-03-05T05:07:48.665Z,3.80
2023-03-05T05:10:16.077Z,3.80
2023-03-05T05:12:43.122Z,3.80
2023-03-05T05:15:11.627Z,3.70
2023-03-05T05:17:38.463Z,3.80
2023-03-05T05:20:06.662Z,3.70
2023-03-05T05:22:34.481Z,3.70
2023-03-05T05:25:01.167Z,3.70
2023-03-05T05:27:27.851Z,3.70
2023-03-05T05:29:54.435Z,3.70
2023-03-05T05:32:22.674Z,3.70
2023-03-05T05:34:49.561Z,3.70
2023-03-05T05:37:16.210Z,3.70
2023-03-05T05:39:42.810Z,3.70
2023-03-05T05:42:11.501Z,3.70
2023-03-05T05:44:38.126Z,3.80
2023-03-05T05:47:04.755Z,3.70
2023-03-05T05:49:31.732Z,3.70
2023-03-05T05:51:59.062Z,3.70
2023-03-05T05:54:25.678Z,3.80
2023-03-05T05:56:52.262Z,3.80
2023-03-05T05:59:18.902Z,3.80
2023-03-05T06:01:45.512Z,3.80
2023-03-05T06:04:12.241Z,3.80
2023-03-05T06:06:38.826Z,3.90
2023-03-05T06:09:05.542Z,3.80
2023-03-05T06:11:32.300Z,3.80
2023-03-05T06:13:58.938Z,3.80
2023-03-05T06:16:25.625Z,3.80
2023-03-05T06:18:53.253Z,3.80
2023-03-05T06:21:21.889Z,3.80
2023-03-05T06:23:49.422Z,3.80
2023-03-05T06:26:19.849Z,3.90
2023-03-05T06:28:46.543Z,3.90
2023-03-05T06:31:16.187Z,3.90
2023-03-05T06:33:44.064Z,3.90
2023-03-05T06:36:12.921Z,3.80
2023-03-05T06:38:40.397Z,3.90
2023-03-05T06:41:11.538Z,4.00
2023-03-05T06:43:40.906Z,4.20
2023-03-05T06:46:12.889Z,4.30
2023-03-05T06:48:39.881Z,4.20
2023-03-05T06:51:20.811Z,4.20
2023-03-05T06:53:49.453Z,4.20
2023-03-05T06:56:16.933Z,4.20
2023-03-05T06:58:45.944Z,4.30
2023-03-05T07:01:15.618Z,4.30
2023-03-05T07:03:42.844Z,4.30
2023-03-05T07:06:15.814Z,4.30
2023-03-05T07:08:44.585Z,4.40
2023-03-05T07:11:15.414Z,4.40
2023-03-05T07:13:43.368Z,4.50
2023-03-05T07:16:14.045Z,4.50
2023-03-05T07:18:43.597Z,4.50
2023-03-05T07:21:14.749Z,4.60
2023-03-05T07:23:41.345Z,4.70
2023-03-05T07:26:07.919Z,4.60
2023-03-05T07:28:35.194Z,4.70
2023-03-05T07:31:07.987Z,4.70
2023-03-05T07:33:37.015Z,4.80
2023-03-05T07:36:05.046Z,4.90
2023-03-05T07:38:32.156Z,4.90
2023-03-05T07:41:03.489Z,5.00
2023-03-05T07:43:30.145Z,4.90
2023-03-05T07:45:56.834Z,4.90
2023-03-05T07:48:23.934Z,4.90
2023-03-05T07:50:50.832Z,4.90
2023-03-05T07:53:17.477Z,4.90
2023-03-05T07:55:45.218Z,5.00
2023-03-05T07:58:13.782Z,5.10
2023-03-05T08:00:40.919Z,5.30
2023-03-05T08:03:07.689Z,5.30
2023-03-05T08:05:34.644Z,5.30
2023-03-05T08:08:01.203Z,5.50
2023-03-05T08:10:27.914Z,5.50
2023-03-05T08:12:54.477Z,5.80
2023-03-05T08:15:21.251Z,6.00
2023-03-05T08:17:47.841Z,6.30
2023-03-05T08:20:14.533Z,6.70
2023-03-05T08:22:41.126Z,6.70
2023-03-05T08:25:08.672Z,6.70
2023-03-05T08:27:40.567Z,6.60
2023-03-05T08:30:09.202Z,6.30
2023-03-05T08:32:35.806Z,6.20
2023-03-05T08:35:04.563Z,6.10
2023-03-05T08:37:31.538Z,6.00
2023-03-05T08:39:58.572Z,6.10
2023-03-05T08:42:25.313Z,5.90
2023-03-05T08:44:51.960Z,5.80
2023-03-05T08:47:19.171Z,5.80
2023-03-05T08:49:46.185Z,5.70
2023-03-05T08:52:12.889Z,5.70
2023-03-05T08:54:39.476Z,5.50
2023-03-05T08:57:06.070Z,5.40
2023-03-05T08:59:32.670Z,5.20
2023-03-05T09:02:02.660Z,5.00
2023-03-05T09:04:29.243Z,4.80
2023-03-05T09:06:57.521Z,4.60
2023-03-05T09:09:24.692Z,4.60
2023-03-05T09:11:52.180Z,4.40
2023-03-05T09:14:18.887Z,4.50
2023-03-05T09:16:45.613Z,4.60
2023-03-05T09:19:14.893Z,4.60
2023-03-05T09:21:41.797Z,4.70
2023-03-05T09:24:08.965Z,4.90
2023-03-05T09:26:35.753Z,4.90
2023-03-05T09:29:02.445Z,5.10
2023-03-05T09:31:29.617Z,5.20
2023-03-05T09:33:56.210Z,5.30
2023-03-05T09:36:26.258Z,5.40
2023-03-05T09:38:56.348Z,5.50
2023-03-05T09:41:54.664Z,5.70
2023-03-05T09:44:58.980Z,5.80
2023-03-05T09:47:46.093Z,5.60
2023-03-05T09:50:34.253Z,5.40
2023-03-05T09:53:20.707Z,5.10
2023-03-05T09:55:51.428Z,5.00
2023-03-05T09:58:49.486Z,4.90
2023-03-05T10:01:29.150Z,4.70
2023-03-05T10:04:02.523Z,4.70
2023-03-05T10:07:12.395Z,4.90
2023-03-05T10:10:00.367Z,4.90
2023-03-05T10:12:46.266Z,5.00
2023-03-05T10:15:14.271Z,5.10
2023-03-05T10:18:14.109Z,6.10
2023-03-05T10:20:46.706Z,5.80
2023-03-05T10:23:33.628Z,6.80
2023-03-05T10:26:15.014Z,7.80
2023-03-05T10:28:50.237Z,9.20
2023-03-05T10:31:41.821Z,9.50
2023-03-05T10:34:08.517Z,8.50
2023-03-05T10:36:50.196Z,7.80
2023-03-05T10:39:31.875Z,7.30
2023-03-05T10:42:35.211Z,6.80
2023-03-05T10:45:21.290Z,6.90
2023-03-05T10:47:51.188Z,7.10
2023-03-05T10:50:33.500Z,7.60
2023-03-05T10:53:18.355Z,11.10
2023-03-05T10:55:45.078Z,11.40
2023-03-05T10:58:16.882Z,10.00
2023-03-05T11:01:04.534Z,8.90
2023-03-05T11:04:06.103Z,8.40
2023-03-05T11:06:36.243Z,9.30
2023-03-05T11:09:32.231Z,9.40
2023-03-05T11:12:04.681Z,9.30
2023-03-05T11:14:35.772Z,9.60
2023-03-05T11:17:22.577Z,9.20
2023-03-05T11:19:49.291Z,8.80
2023-03-05T11:22:24.536Z,8.10
2023-03-05T11:25:14.274Z,7.50
2023-03-05T11:27:54.594Z,7.10
2023-03-05T11:30:33.917Z,6.90
2023-03-05T11:33:19.299Z,6.80
2023-03-05T11:35:47.715Z,6.60
2023-03-05T11:38:27.906Z,6.70
2023-03-05T11:40:56.535Z,6.90
2023-03-05T11:43:25.151Z,7.00
2023-03-05T11:46:05.325Z,7.00
2023-03-05T11:48:39.935Z,7.00
2023-03-05T11:51:15.732Z,7.10
2023-03-05T11:53:44.413Z,7.30
2023-03-05T11:56:31.537Z,7.30
2023-03-05T11:59:14.716Z,7.40
2023-03-05T12:01:49.027Z,8.90
2023-03-05T12:04:16.825Z,7.30
2023-03-05T12:06:48.224Z,7.50
2023-03-05T12:09:27.066Z,7.50
2023-03-05T12:12:21.298Z,7.80
2023-03-05T12:14:53.719Z,9.30
2023-03-05T12:17:35.987Z,10.40
2023-03-05T12:20:12.561Z,11.30
2023-03-05T12:22:41.330Z,12.30
2023-03-05T12:25:32.155Z,12.90
2023-03-05T12:28:00.164Z,13.00
2023-03-05T12:30:49.795Z,13.30
2023-03-05T12:33:32.995Z,13.00
2023-03-05T12:36:18.359Z,12.40
2023-03-05T12:38:56.172Z,12.50
2023-03-05T12:41:22.690Z,12.50
2023-03-05T12:44:07.613Z,12.50
2023-03-05T12:46:43.135Z,12.40
2023-03-05T12:49:26.931Z,12.60
2023-03-05T12:51:55.978Z,13.20
2023-03-05T12:54:39.751Z,13.80
2023-03-05T12:57:24.352Z,13.50
2023-03-05T13:00:21.429Z,13.10
2023-03-05T13:02:55.758Z,12.90
2023-03-05T13:05:39.083Z,12.80
2023-03-05T13:08:25.803Z,12.90
2023-03-05T13:10:58.685Z,12.60
2023-03-05T13:13:28.342Z,12.20
2023-03-05T13:15:56.731Z,12.20
2023-03-05T13:18:30.130Z,12.00
2023-03-05T13:21:04.635Z,11.80
2023-03-05T13:23:32.806Z,11.40
2023-03-05T13:26:18.572Z,11.00
2023-03-05T13:29:05.093Z,10.70
2023-03-05T13:31:31.812Z,10.50
2023-03-05T13:34:19.048Z,10.60
2023-03-05T13:36:52.082Z,10.60
2023-03-05T13:39:21.843Z,10.40
2023-03-05T13:42:00.887Z,10.30
2023-03-05T13:44:29.422Z,10.10
2023-03-05T13:47:08.603Z,10.10
2023-03-05T13:49:35.583Z,10.30
2023-03-05T13:52:02.848Z,10.40
2023-03-05T13:54:30.204Z,9.90
2023-03-05T13:56:56.774Z,9.80
2023-03-05T13:59:33.835Z,10.10
2023-03-05T14:02:14.664Z,10.30
2023-03-05T14:04:46.092Z,10.10
2023-03-05T14:07:26.984Z,9.90
2023-03-05T14:09:54.091Z,9.60
2023-03-05T14:12:42.463Z,9.60
2023-03-05T14:15:24.247Z,9.60
2023-03-05T14:17:50.895Z,9.70
2023-03-05T14:20:23.215Z,9.60
2023-03-05T14:22:53.649Z,9.70
2023-03-05T14:25:39.420Z,9.90
2023-03-05T14:28:22.092Z,9.80
2023-03-05T14:30:52.324Z,10.00
2023-03-05T14:33:29.374Z,10.40
2023-03-05T14:35:58.208Z,10.70
2023-03-05T14:38:29.547Z,10.50
2023-03-05T14:40:56.368Z,10.30
2023-03-05T14:43:23.656Z,10.10
2023-03-05T14:45:50.265Z,9.80
2023-03-05T14:48:18.959Z,9.60
2023-03-05T14:50:56.827Z,9.50
2023-03-05T14:53:30.631Z,9.40
2023-03-05T14:55:57.366Z,9.40
2023-03-05T14:58:27.458Z,9.50
2023-03-05T15:00:55.350Z,9.50
2023-03-05T15:03:22.961Z,9.70
2023-03-05T15:05:55.074Z,9.70
2023-03-05T15:08:28.182Z,9.50
2023-03-05T15:10:55.452Z,9.50
2023-03-05T15:13:22.176Z,9.40
2023-03-05T15:15:53.007Z,9.20
2023-03-05T15:18:21.557Z,9.00
2023-03-05T15:20:49.308Z,8.90
2023-03-05T15:23:16.089Z,8.90
2023-03-05T15:25:42.900Z,8.70
2023-03-05T15:28:09.872Z,8.70
2023-03-05T15:30:39.891Z,8.60
2023-03-05T15:33:12.644Z,8.40
2023-03-05T15:35:40.078Z,8.30
2023-03-05T15:38:06.836Z,8.20
2023-03-05T15:40:33.965Z,8.10
2023-03-05T15:43:00.867Z,8.00
2023-03-05T15:45:28.042Z,7.80
2023-03-05T15:47:54.632Z,7.70
2023-03-05T15:50:21.993Z,7.60
2023-03-05T15:52:50.343Z,7.50
2023-03-05T15:55:18.348Z,7.50
2023-03-05T15:57:48.155Z,7.50
2023-03-05T16:00:18.789Z,7.40
2023-03-05T16:02:45.323Z,7.40
2023-03-05T16:05:11.870Z,7.30
2023-03-05T16:07:40.618Z,7.30
2023-03-05T16:10:10.424Z,7.30
2023-03-05T16:12:40.804Z,7.20
2023-03-05T16:15:10.192Z,7.20
2023-03-05T16:17:38.627Z,7.20
2023-03-05T16:20:06.087Z,7.20
2023-03-05T16:22:32.959Z,7.10
2023-03-05T16:25:02.621Z,7.10
2023-03-05T16:27:29.724Z,7.00
2023-03-05T16:29:57.556Z,7.00
2023-03-05T16:32:24.977Z,7.00
2023-03-05T16:34:51.690Z,6.80
2023-03-05T16:37:22.511Z,8.60
2023-03-05T16:39:49.346Z,6.80
2023-03-05T16:42:16.541Z,6.80
2023-03-05T16:44:43.720Z,6.80
2023-03-05T16:47:12.171Z,6.80
2023-03-05T16:49:39.718Z,6.70
2023-03-05T16:52:18.222Z,6.60
2023-03-05T16:54:46.342Z,6.60
2023-03-05T16:57:13.256Z,6.70
2023-03-05T16:59:40.646Z,6.60
2023-03-05T17:02:07.841Z,6.50
2023-03-05T17:04:34.603Z,6.40
2023-03-05T17:07:03.363Z,6.40
2023-03-05T17:09:30.436Z,6.40
2023-03-05T17:11:57.013Z,6.40
2023-03-05T17:14:26.723Z,6.30
2023-03-05T17:16:53.482Z,6.40
2023-03-05T17:19:20.063Z,6.20
2023-03-05T17:21:50.525Z,6.20
2023-03-05T17:24:17.365Z,6.00
2023-03-05T17:26:46.549Z,6.10
2023-03-05T17:29:13.211Z,6.00
2023-03-05T17:31:40.094Z,6.00
2023-03-05T17:34:06.760Z,6.00
2023-03-05T17:36:33.394Z,5.90
2023-03-05T17:39:00.053Z,5.90
2023-03-05T17:41:26.752Z,5.90
2023-03-05T17:43:53.334Z,5.90
2023-03-05T17:46:19.901Z,5.90
2023-03-05T17:48:46.541Z,5.90
2023-03-05T17:51:16.509Z,5.90
2023-03-05T17:53:43.901Z,5.90
2023-03-05T17:56:12.292Z,5.90
2023-03-05T17:58:39.522Z,5.80
2023-03-05T18:01:07.563Z,5.70
2023-03-05T18:03:34.691Z,5.70
2023-03-05T18:06:01.268Z,5.70
2023-03-05T18:08:28.053Z,5.70
2023-03-05T18:10:55.119Z,5.60
2023-03-05T18:13:21.712Z,5.70
2023-03-05T18:15:48.289Z,5.70
2023-03-05T18:18:16.093Z,5.70
2023-03-05T18:20:43.258Z,5.70
2023-03-05T18:23:10.458Z,5.70
2023-03-05T18:25:37.123Z,5.70
2023-03-05T18:28:14.565Z,5.70
2023-03-05T18:30:42.419Z,5.60
2023-03-05T18:33:24.325Z,5.60
2023-03-05T18:35:52.235Z,5.60
2023-03-05T18:38:21.124Z,5.60
2023-03-05T18:40:50.987Z,5.60
2023-03-05T18:43:20.402Z,5.60
2023-03-05T18:45:52.699Z,5.50
2023-03-05T18:48:20.316Z,5.50
2023-03-05T18:50:50.334Z,5.50
2023-03-05T18:53:17.311Z,5.50
2023-03-05T18:55:44.765Z,5.50
2023-03-05T18:58:15.580Z,5.50
2023-03-05T19:00:44.700Z,5.50
2023-03-05T19:03:12.071Z,5.50
2023-03-05T19:05:39.801Z,5.50
2023-03-05T19:08:07.760Z,5.50
2023-03-05T19:10:34.661Z,5.50
2023-03-05T19:13:25.622Z,5.50
2023-03-05T19:15:52.343Z,5.50
2023-03-05T19:18:20.549Z,5.50
2023-03-05T19:20:55.216Z,5.50
2023-03-05T19:23:22.448Z,5.40
2023-03-05T19:25:49.040Z,5.40
2023-03-05T19:28:15.781Z,5.40
2023-03-05T19:30:42.442Z,5.30
2023-03-05T19:33:09.137Z,5.40
2023-03-05T19:35:35.750Z,5.40
2023-03-05T19:38:11.555Z,5.40
2023-03-05T19:40:41.250Z,5.40
2023-03-05T19:43:08.012Z,5.30
2023-03-05T19:45:34.971Z,5.40
2023-03-05T19:48:02.091Z,5.40
2023-03-05T19:50:28.712Z,5.40
2023-03-05T19:52:55.336Z,5.40
2023-03-05T19:55:21.929Z,5.40
2023-03-05T19:57:48.585Z,5.30
2023-03-05T20:00:15.671Z,5.30
2023-03-05T20:02:42.320Z,5.30
2023-03-05T20:05:09.568Z,5.30
2023-03-05T20:07:36.190Z,5.20
2023-03-05T20:10:02.832Z,6.00
2023-03-05T20:12:30.481Z,5.20
2023-03-05T20:14:57.195Z,5.10
2023-03-05T20:17:23.738Z,5.10
2023-03-05T20:19:50.318Z,5.10
2023-03-05T20:22:19.140Z,5.20
2023-03-05T20:24:46.360Z,5.00
2023-03-05T20:27:13.207Z,5.00
2023-03-05T20:29:39.796Z,5.00
2023-03-05T20:32:06.403Z,5.00
2023-03-05T20:34:33.098Z,5.00
2023-03-05T20:36:59.676Z,5.00
2023-03-05T20:39:26.366Z,5.00
2023-03-05T20:41:53.044Z,5.00
2023-03-05T20:44:19.773Z,5.00
2023-03-05T20:46:59.473Z,4.90
2023-03-05T20:49:26.130Z,4.90
2023-03-05T20:51:52.746Z,4.90
2023-03-05T20:54:20.190Z,4.90
2023-03-05T20:56:47.637Z,4.90
2023-03-05T20:59:14.271Z,4.90
2023-03-05T21:01:41.012Z,4.90
2023-03-05T21:04:08.120Z,4.90
2023-03-05T21:06:35.471Z,4.90
2023-03-05T21:09:02.747Z,4.90
2023-03-05T21:11:29.389Z,4.90
2023-03-05T21:13:56.046Z,4.80
2023-03-05T21:16:25.158Z,4.90
2023-03-05T21:18:52.128Z,4.90
2023-03-05T21:21:19.295Z,4.90
2023-03-05T21:23:46.924Z,4.80
2023-03-05T21:26:13.775Z,4.90
2023-03-05T21:28:40.971Z,4.90
2023-03-05T21:31:10.675Z,4.90
2023-03-05T21:33:37.460Z,4.80
2023-03-05T21:36:04.998Z,4.80
2023-03-05T21:38:33.819Z,4.80
2023-03-05T21:41:01.066Z,4.80
2023-03-05T21:43:28.450Z,4.80
2023-03-05T21:45:56.939Z,4.90
2023-03-05T21:48:25.060Z,4.90
2023-03-05T21:50:52.616Z,4.80
2023-03-05T21:53:19.576Z,4.80
2023-03-05T21:55:56.730Z,4.80
2023-03-05T21:58:23.272Z,4.80
2023-03-05T22:00:50.013Z,4.80
2023-03-05T22:03:16.688Z,4.80
2023-03-05T22:05:44.250Z,4.80
2023-03-05T22:08:10.895Z,4.90
2023-03-05T22:10:39.444Z,4.80
2023-03-05T22:13:10.196Z,4.80
2023-03-05T22:15:52.092Z,4.80
2023-03-05T22:18:24.192Z,4.80
2023-03-05T22:20:51.855Z,4.80
2023-03-05T22:23:19.737Z,4.80
2023-03-05T22:25:46.512Z,4.80
2023-03-05T22:28:13.511Z,4.80
2023-03-05T22:30:44.359Z,4.80
2023-03-05T22:33:13.641Z,4.80
2023-03-05T22:35:41.595Z,4.90
2023-03-05T22:38:09.319Z,4.90
2023-03-05T22:40:37.568Z,4.90
2023-03-05T22:43:04.595Z,4.90
2023-03-05T22:45:32.222Z,4.90
2023-03-05T22:47:58.932Z,4.80
2023-03-05T22:50:25.514Z,4.80
2023-03-05T22:52:53.386Z,4.90
2023-03-05T22:55:20.078Z,4.90
2023-03-05T22:57:46.721Z,4.80
2023-03-05T23:00:23.273Z,4.70
2023-03-05T23:02:50.975Z,4.70
2023-03-05T23:05:18.201Z,4.70
2023-03-05T23:07:45.945Z,4.70
2023-03-05T23:10:23.902Z,4.70
2023-03-05T23:12:53.383Z,4.70
2023-03-05T23:15:26.333Z,4.70
2023-03-05T23:17:53.406Z,4.80
2023-03-05T23:20:22.813Z,4.70
2023-03-05T23:22:52.857Z,4.70
2023-03-05T23:25:22.880Z,4.70
2023-03-05T23:27:50.529Z,4.60
2023-03-05T23:30:21.072Z,4.70
2023-03-05T23:32:50.421Z,4.60
2023-03-05T23:35:26.839Z,4.60
2023-03-05T23:37:55.041Z,4.60
2023-03-05T23:40:24.355Z,4.60
2023-03-05T23:42:51.742Z,4.60
2023-03-05T23:45:19.729Z,4.60
2023-03-05T23:47:48.275Z,4.60
2023-03-05T23:50:19.303Z,4.50
2023-03-05T23:52:46.063Z,4.50
2023-03-05T23:55:20.999Z,4.50
2023-03-05T23:57:47.990Z,4.50
